Terminal Aerodrome Forecast
Issued by NWS Charleston, WV

Current Version | Previous Version | Graphics & Text | Print | Product List | Glossary On
Versions: 1 2 3 4 5 6 7 8 9 10 11 12 13 14 15 16 17 18
000
FTUS41 KRLX 251100
TAFBKW
TAF
KBKW 251122Z 2512/2612 27011G18KT P6SM OVC035
      TEMPO 2512/2513 BKN025
     FM251300 27011G18KT P6SM OVC025
     FM251400 28010G18KT P6SM OVC015
     FM251800 28011G17KT P6SM BKN025
     FM252000 28008KT P6SM BKN040
     FM252300 27005KT P6SM SCT040
     FM260200 VRB03KT P6SM SCT200=

USA.gov is the U.S. government's official web portal to all federal, state and local government web resources and services.